AirNav   Pilot Hours Calculator
 
 994 users online  

2OK2 Twin Lakes Airport
Midwest City, Oklahoma, USA

GOING TO MIDWEST CITY?


FAA INFORMATION EFFECTIVE 25 MARCH 2021

Location

FAA Identifier: 2OK2
Lat/Long: 35-19-45.6700N 097-16-11.0450W
35-19.761167N 097-16.184083W
35.3293528,-97.2697347
(estimated)
Elevation: 1198 ft. / 365 m (estimated)
Variation: 07E (1985)
From city: 10 miles SE of MIDWEST CITY, OK
Time zone: UTC -5 (UTC -6 during Standard Time)
Zip code: 73165

Airport Operations

Airport use: Private use. Permission required prior to landing
Control tower: no
ARTCC: FORT WORTH CENTER
FSS: MC ALESTER FLIGHT SERVICE STATION
Attendance: UNATNDD
Wind indicator: yes
Segmented circle: no
Lights: ACTVT LIRL RWY 18/36 - UNICOM.

Airport Communications

UNICOM: 122.7
WX AWOS-3 at OUN (11 nm SW): 119.55 (405-325-7302)
WX AWOS-3 at SNL (16 nm E): 118.275 (405-878-1745)
WX ASOS at OKC (17 nm W): PHONE 405-686-4711

Nearby radio navigation aids

VOR radial/distance  VOR name  Freq  Var
IRWr089/16.7WILL ROGERS VORTAC114.1007E
PWAr116/22.1WILEY POST VOR/DME113.4008E

 
NDB name  Hdg/Dist  Freq  Var  ID
SEMINOLE271/29.327806ESRE ... .-. .

Airport Services

Airframe service: NONE
Powerplant service: NONE

Runway Information

Runway 18/36

Dimensions: 2700 x 30 ft. / 823 x 9 m
Surface: concrete, in good condition
Runway edge lights: low intensity
RUNWAY 18  RUNWAY 36
Latitude: 35-19.981667N35-19.540833N
Longitude: 097-16.148333W097-16.219833W
Elevation: 1198.0 ft.1168.0 ft.
Traffic pattern: leftleft
Markings: numbers only, in good conditionnumbers only, in good condition
Touchdown point: yes, no lightsyes, no lights
Obstructions: 300 ft. pline, 4000 ft. from runwaynone

Airport Ownership and Management from official FAA records

Ownership: Privately-owned
Owner: PILOTS HAVEN AIRPORT INC
14112 CHANDELLE DRIVE
NEWALLA, OK 74857
Phone 405-799-6049
Manager: MARSHALL ALEXANDER
14001 CHANDELLE DRIVE
NEWALLA, OK 74857
Phone 405-799-6049

Airport Operational Statistics

Aircraft based on the field: 20
Single engine airplanes: 19
Multi engine airplanes: 1
    

Additional Remarks

SHARP DROP OFF AT EACH END OF RWY.
HIGH LINE AT RIGHT ANGLE TO RWY-APRX 3/4MI FM S END OF RWY.
FOR CD CTC OKLAHOMA CITY CITY APCH AT 405-681-5683.

Instrument Procedures

There are no published instrument procedures at 2OK2.

Some nearby airports with instrument procedures:

KTIK - Tinker Air Force Base (8 nm NW)
KOUN - University of Oklahoma Westheimer Airport (11 nm SW)
1K4 - David Jay Perry Airport (14 nm SW)
KSNL - Shawnee Regional Airport (16 nm E)
KOKC - Will Rogers World Airport (17 nm W)
KHMY - Muldrow Army Heliport (18 nm S)
 
Loc | Ops | Rwys | IFR | FBO | Links
Com | Nav | Svcs | Stats | Notes
Area around 2OK2 (Twin Lakes Airport)
 
Road maps at: MapQuest Bing Google
 
Aerial photo
WARNING: Photo may not be current or correct
Aerial photo of 2OK2 (Twin Lakes Airport)
Do you have a better or more recent aerial photo of Twin Lakes Airport that you would like to share? If so, please send us your photo.

 
Sectional chart

 
Airport distance calculator
Flying to Twin Lakes Airport? Find the distance to fly.

From to 2OK2

Sunrise and sunset
Times for 11-Apr-2021
 Local
(UTC-5)
 Zulu
(UTC)
Morning civil twilight06:3711:37
Sunrise07:0312:03
Sunset19:5700:57
Evening civil twilight20:2301:23

Current date and time
Zulu (UTC)  12-Apr-2021 01:13:39
Local (UTC-5)  11-Apr-2021 20:13:39
 
METAR
KTIK 
7nm NW 
120056Z AUTO 23006KT 10SM CLR 25/04 A2964 RMK AO2 SLP038 T02450043
KOUN 
11nm SW 
120047Z 19007KT 10SM CLR 25/04 A2961
KSNL 
16nm E 
120055Z AUTO 19007KT 10SM CLR 23/00 A2964 RMK AO2 T02270000
KOKC 
16nm W 
120052Z 23005KT 10SM FEW250 22/04 A2964 RMK AO2 SLP029 T02220044
TAF
KTIK 
7nm NW 
111700Z 1117/1223 21014G24KT 9999 SKC 510353 QNH2958INS BECMG 1122/1123 VRB06KT 9999 SKC QNH2958INS BECMG 1208/1209 02015KT 9999 SCT050 520103 QNH2980INS BECMG 1213/1214 03015G25KT 9999 BKN040 520103 QNH2990INS TX28/1122Z TN07/1213Z
KOUN 
11nm SW 
111720Z 1118/1218 19018G24KT P6SM SKC FM120300 02008KT P6SM FEW150 FM120700 04014G21KT P6SM FEW250 FM121600 03017G24KT P6SM BKN040
KOKC 
16nm W 
111720Z 1118/1218 21019G27KT P6SM SKC FM120200 03010KT P6SM FEW150 FM120800 03015G25KT P6SM FEW250
NOTAMs
Click for the latest NOTAMs
NOTAMs are issued by the DoD/FAA and will open in a separate window not controlled by AirNav.

 

 
 

Would you like to see your business listed on this page?

 If your business provides an interesting product or service to pilots, flight crews, aircraft, or users of the Twin Lakes Airport, you should consider listing it here.  To start the listing process, click on the button below
 
Add a business
 

Other Pages about Twin Lakes Airport

Update a link
 
Copyright © AirNav, LLC. All rights reserved. Privacy Policy  Contact